Time;durP1;ratioP1;P1;durP2;ratioP2;P2;SDS_P1;SDS_P2;PMS_P1;PMS_P2;Temp;Humidity;BMP_temperature;BMP_pressure;BME280_temperature;BME280_humidity;BME280_pressure;Samples;Min_cycle;Max_cycle;Signal;HPM_P1;HPM_P2
2021/08/29 00:00:08;;;;;;;21.05;16.40;;;;;;;12.84;83.06;100467.70;1707081;81;27267;-77
2021/08/29 00:02:37;;;;;;;22.95;15.23;;;;;;;12.84;83.19;100469.88;1711919;81;25769;-78
2021/08/29 00:05:06;;;;;;;21.62;17.02;;;;;;;12.84;83.29;100467.20;1704466;81;25801;-77
2021/08/29 00:07:33;;;;;;;22.10;17.37;;;;;;;12.84;83.32;100475.26;1713111;81;25744;-77
2021/08/29 00:10:00;;;;;;;18.15;16.15;;;;;;;12.81;83.46;100472.97;1682706;83;25832;-77
2021/08/29 00:12:27;;;;;;;24.05;18.45;;;;;;;12.80;83.60;100470.49;1693475;81;28127;-78
2021/08/29 00:14:54;;;;;;;22.55;17.07;;;;;;;12.80;83.80;100466.46;1685516;83;25809;-77
2021/08/29 00:17:21;;;;;;;21.12;17.60;;;;;;;12.75;83.87;100465.72;1707767;83;25862;-77
2021/08/29 00:19:48;;;;;;;21.00;17.52;;;;;;;12.73;84.00;100460.23;1715785;83;25876;-77
2021/08/29 00:22:17;;;;;;;18.98;16.97;;;;;;;12.69;84.02;100461.17;1711136;81;25903;-77
2021/08/29 00:24:44;;;;;;;19.30;17.20;;;;;;;12.68;84.26;100463.53;1695505;81;27407;-77
2021/08/29 00:27:11;;;;;;;22.65;16.67;;;;;;;12.69;84.33;100458.99;1736519;81;26433;-77
2021/08/29 00:29:38;;;;;;;18.45;16.30;;;;;;;12.69;84.21;100458.99;1685589;84;25863;-78
2021/08/29 00:32:05;;;;;;;17.75;15.68;;;;;;;12.70;83.94;100462.01;1691770;81;25764;-78
2021/08/29 00:34:32;;;;;;;19.62;15.45;;;;;;;12.65;83.67;100449.17;1638160;83;25824;-77
2021/08/29 00:36:59;;;;;;;18.32;16.40;;;;;;;12.63;83.52;100457.13;1710859;82;27460;-77
2021/08/29 00:39:26;;;;;;;18.20;15.55;;;;;;;12.60;83.34;100454.32;1690008;82;25762;-77
2021/08/29 00:41:53;;;;;;;20.72;16.35;;;;;;;12.55;83.33;100452.78;1680346;83;26589;-77
2021/08/29 00:44:21;;;;;;;19.60;16.27;;;;;;;12.54;83.31;100448.93;1692452;81;25785;-78
2021/08/29 00:46:48;;;;;;;20.52;15.80;;;;;;;12.52;83.29;100446.45;1690514;83;25802;-77
2021/08/29 00:49:20;;;;;;;16.10;14.30;;;;;;;12.53;83.39;100448.09;1715814;83;28253;-77
2021/08/29 00:51:52;;;;;;;18.77;14.70;;;;;;;12.54;83.49;100450.27;1651037;84;25829;-77
2021/08/29 00:54:19;;;;;;;18.50;14.75;;;;;;;12.53;83.47;100456.16;1676283;84;25832;-77
2021/08/29 00:56:46;;;;;;;18.75;15.32;;;;;;;12.51;83.61;100458.22;1705587;84;25994;-77
2021/08/29 00:59:13;;;;;;;16.48;13.90;;;;;;;12.51;83.69;100462.25;1700553;84;25854;-77
2021/08/29 01:01:52;;;;;;;17.40;14.80;;;;;;;12.52;83.65;100469.30;1655376;84;27487;-78
2021/08/29 01:04:24;;;;;;;14.78;13.03;;;;;;;12.52;83.62;100462.58;1683443;84;25765;-77
2021/08/29 01:07:07;;;;;;;18.00;14.53;;;;;;;12.51;83.63;100462.25;1674405;84;25944;-77
2021/08/29 01:09:41;;;;;;;17.45;14.87;;;;;;;12.51;83.79;100462.25;1694255;83;26657;-77
2021/08/29 01:12:09;;;;;;;19.02;15.03;;;;;;;12.49;83.83;100468.88;1654542;84;25927;-77
2021/08/29 01:14:51;;;;;;;19.27;14.78;;;;;;;12.47;83.79;100466.91;1657699;84;28254;-77
2021/08/29 01:17:25;;;;;;;18.55;15.05;;;;;;;12.46;83.89;100467.42;1705557;84;25791;-77
2021/08/29 01:20:37;;;;;;;19.60;16.32;;;;;;;12.44;83.82;100474.02;1666005;84;25846;-77
2021/08/29 01:23:08;;;;;;;23.70;15.13;;;;;;;12.43;84.00;100473.18;1701520;84;25753;-78
2021/08/29 01:25:39;;;;;;;17.52;14.43;;;;;;;12.43;84.04;100474.52;1705534;82;25881;-77
2021/08/29 01:28:16;;;;;;;17.95;15.60;;;;;;;12.42;84.13;100470.20;1706714;84;27470;-77
2021/08/29 01:30:46;;;;;;;17.07;14.38;;;;;;;12.43;84.11;100468.31;1655405;84;25705;-77
2021/08/29 01:33:15;;;;;;;16.25;13.70;;;;;;;12.40;83.94;100471.72;1677861;84;25843;-78
2021/08/29 01:35:44;;;;;;;16.95;14.80;;;;;;;12.37;83.78;100471.31;1656116;84;26544;-77
2021/08/29 01:38:11;;;;;;;17.98;14.28;;;;;;;12.34;83.79;100477.06;1705342;84;26606;-78
2021/08/29 01:40:40;;;;;;;17.23;14.78;;;;;;;12.32;83.78;100472.41;1667316;84;28162;-77
2021/08/29 01:43:07;;;;;;;15.88;14.20;;;;;;;12.30;83.76;100475.81;1653023;82;26560;-77
2021/08/29 01:45:37;;;;;;;18.37;15.13;;;;;;;12.29;83.81;100472.84;1665656;84;25863;-77
2021/08/29 01:48:05;;;;;;;18.35;14.98;;;;;;;12.27;83.87;100469.52;1705899;82;26117;-77
2021/08/29 01:50:42;;;;;;;20.30;15.25;;;;;;;12.28;83.99;100476.03;1668865;83;25817;-77
2021/08/29 01:53:11;;;;;;;17.30;14.73;;;;;;;12.28;84.12;100469.31;1654692;83;27557;-77
2021/08/29 01:55:39;;;;;;;21.77;14.53;;;;;;;12.29;84.14;100472.33;1658186;84;25893;-78
2021/08/29 01:58:11;;;;;;;18.73;14.58;;;;;;;12.26;83.82;100470.03;1700809;83;25943;-77
2021/08/29 02:00:53;;;;;;;18.20;13.58;;;;;;;12.23;83.76;100466.93;1677277;83;26411;-77
2021/08/29 02:03:21;;;;;;;;;;;;;;;12.18;83.67;100467.52;1678749;83;25909;-77
2021/08/29 02:05:58;;;;;;;16.23;13.88;;;;;;;12.13;83.85;100465.11;1679480;83;27674;-77
2021/08/29 02:08:26;;;;;;;16.45;14.50;;;;;;;12.09;83.98;100463.34;1673162;84;25837;-76
2021/08/29 02:10:58;;;;;;;17.85;14.87;;;;;;;12.11;84.05;100457.77;1640174;85;25950;-78
2021/08/29 02:13:28;;;;;;;17.37;15.08;;;;;;;12.12;84.22;100460.27;1694902;84;25986;-78
2021/08/29 02:16:08;;;;;;;21.20;15.55;;;;;;;12.14;84.32;100456.03;1666678;84;26046;-78
2021/08/29 02:18:37;;;;;;;16.45;14.65;;;;;;;12.13;84.19;100453.86;1702165;83;28293;-78
2021/08/29 02:21:05;;;;;;;21.60;16.82;;;;;;;12.09;84.12;100463.85;1668265;84;25859;-78
2021/08/29 02:23:33;;;;;;;20.55;16.00;;;;;;;12.03;84.03;100463.31;1639854;84;25757;-77
2021/08/29 02:26:00;;;;;;;18.90;15.50;;;;;;;11.97;84.02;100459.58;1678913;83;25792;-77
2021/08/29 02:28:28;;;;;;;17.40;15.48;;;;;;;11.94;84.03;100456.45;1705856;83;25952;-78
2021/08/29 02:30:56;;;;;;;24.63;15.85;;;;;;;11.90;83.96;100447.97;1676831;84;27436;-76
2021/08/29 02:33:24;;;;;;;19.65;16.73;;;;;;;11.87;83.97;100447.02;1674579;84;25805;-77
2021/08/29 02:35:52;;;;;;;18.32;15.15;;;;;;;11.86;83.98;100445.88;1674799;83;25990;-76
2021/08/29 02:38:23;;;;;;;17.92;14.45;;;;;;;11.84;83.72;100450.63;1705914;83;26080;-77
2021/08/29 02:40:53;;;;;;;15.65;13.90;;;;;;;11.80;83.72;100445.34;1660102;83;25851;-77
2021/08/29 02:43:21;;;;;;;19.17;13.83;;;;;;;11.76;83.63;100446.23;1656120;83;27425;-77
2021/08/29 02:45:49;;;;;;;14.70;13.08;;;;;;;11.73;83.50;100446.64;1648634;84;26713;-77
2021/08/29 02:48:18;;;;;;;16.75;14.20;;;;;;;11.68;83.40;100438.34;1685049;82;25532;-77
2021/08/29 02:50:47;;;;;;;15.72;13.28;;;;;;;11.67;83.34;100443.92;1684803;82;26002;-77
2021/08/29 02:53:17;;;;;;;16.77;12.80;;;;;;;11.62;83.43;100440.45;1662933;82;25844;-77
2021/08/29 02:55:47;;;;;;;15.63;12.88;;;;;;;11.55;83.23;100441.75;1658896;83;27644;-78
2021/08/29 02:58:14;;;;;;;16.50;11.30;;;;;;;11.51;83.34;100432.95;1712072;82;25885;-77
2021/08/29 03:00:55;;;;;;;12.40;10.43;;;;;;;11.47;83.35;100437.05;1679499;83;25801;-78
2021/08/29 03:03:30;;;;;;;12.50;9.45;;;;;;;11.42;83.45;100439.48;1613785;83;26397;-77
2021/08/29 03:05:59;;;;;;;13.78;10.30;;;;;;;11.39;83.56;100434.02;1695406;82;25933;-77
2021/08/29 03:08:27;;;;;;;14.25;10.08;;;;;;;11.36;83.55;100430.88;1682371;83;27485;-77
2021/08/29 03:10:54;;;;;;;15.95;11.93;;;;;;;11.32;83.43;100431.80;1711253;82;26659;-77
2021/08/29 03:13:21;;;;;;;14.70;12.30;;;;;;;11.30;83.51;100431.67;1632490;83;26529;-77
2021/08/29 03:15:50;;;;;;;14.95;11.93;;;;;;;11.30;83.61;100427.64;1676760;83;25817;-77
2021/08/29 03:18:35;;;;;;;13.60;11.65;;;;;;;11.29;83.62;100420.64;1704680;83;25813;-77
2021/08/29 03:21:04;;;;;;;19.32;12.53;;;;;;;11.28;83.75;100421.66;1661136;84;27526;-77
2021/08/29 03:23:32;;;;;;;22.05;12.10;;;;;;;11.28;83.74;100418.97;1660943;83;25996;-77
2021/08/29 03:26:00;;;;;;;16.73;13.83;;;;;;;11.27;83.77;100420.81;1714259;82;26250;-77
2021/08/29 03:28:27;;;;;;;17.15;13.93;;;;;;;11.26;83.80;100425.88;1679856;82;26206;-77
2021/08/29 03:30:54;;;;;;;20.92;13.08;;;;;;;11.28;83.89;100422.48;1681958;82;25857;-78
2021/08/29 03:33:25;;;;;;;14.60;12.80;;;;;;;11.26;83.89;100421.02;1646750;84;27242;-77
2021/08/29 03:35:54;;;;;;;14.35;12.25;;;;;;;11.23;83.79;100414.70;1717033;82;25918;-78
2021/08/29 03:38:22;;;;;;;15.08;12.40;;;;;;;11.19;83.71;100416.95;1684840;82;25335;-77
2021/08/29 03:40:51;;;;;;;17.48;13.48;;;;;;;11.14;83.64;100410.53;1682565;82;26008;-77
2021/08/29 03:43:19;;;;;;;21.02;13.48;;;;;;;11.12;83.59;100416.59;1658427;82;25875;-77
2021/08/29 03:45:47;;;;;;;18.75;13.08;;;;;;;11.07;83.62;100419.86;1715149;82;27490;-77
2021/08/29 03:48:15;;;;;;;14.83;12.88;;;;;;;11.03;83.48;100426.63;1684551;82;25895;-78
2021/08/29 03:50:45;;;;;;;16.15;13.00;;;;;;;11.01;83.68;100426.00;1684287;82;25840;-77
2021/08/29 03:53:12;;;;;;;18.20;13.85;;;;;;;11.01;83.97;100422.48;1668570;83;25952;-78
2021/08/29 03:55:43;;;;;;;18.10;12.95;;;;;;;11.00;84.16;100418.97;1727829;81;26550;-77
2021/08/29 03:58:11;;;;;;;16.80;12.55;;;;;;;10.99;84.30;100417.30;1700485;81;28337;-77
2021/08/29 04:00:40;;;;;;;15.40;13.32;;;;;;;10.99;84.45;100417.83;1702635;83;26041;-77
2021/08/29 04:03:07;;;;;;;16.57;12.53;;;;;;;11.00;84.64;100422.98;1658701;81;26030;-77
2021/08/29 04:05:46;;;;;;;17.60;13.10;;;;;;;11.02;84.83;100418.77;1703853;81;25819;-78
2021/08/29 04:08:17;;;;;;;16.35;13.80;;;;;;;11.02;84.94;100421.44;1706474;81;25883;-77
2021/08/29 04:10:46;;;;;;;17.77;13.83;;;;;;;11.01;85.06;100426.00;1711877;81;27444;-77
2021/08/29 04:13:14;;;;;;;16.05;12.73;;;;;;;11.02;85.18;100417.42;1664855;81;26595;-77
2021/08/29 04:16:03;;;;;;;15.38;13.18;;;;;;;11.04;85.34;100414.03;1730559;81;26403;-77
2021/08/29 04:18:38;;;;;;;14.83;13.03;;;;;;;11.06;85.65;100416.84;1734782;81;25621;-77
2021/08/29 04:21:06;;;;;;;17.90;13.28;;;;;;;11.07;85.68;100409.64;1737269;81;25810;-77
2021/08/29 04:23:35;;;;;;;16.95;14.50;;;;;;;11.06;85.82;100416.84;1703529;82;28130;-77
2021/08/29 04:26:02;;;;;;;20.90;14.28;;;;;;;11.08;86.03;100426.02;1668577;83;26503;-76
2021/08/29 04:28:30;;;;;;;16.57;14.83;;;;;;;11.11;86.26;100439.05;1688653;81;26523;-77
2021/08/29 04:31:02;;;;;;;18.80;14.75;;;;;;;11.13;86.38;100434.32;1687123;82;25809;-77
2021/08/29 04:33:30;;;;;;;19.73;15.78;;;;;;;11.18;86.55;100436.76;1650087;83;25849;-77
2021/08/29 04:36:04;;;;;;;17.50;15.38;;;;;;;11.23;86.79;100435.64;1708605;82;27553;-77
2021/08/29 04:38:32;;;;;;;17.37;15.13;;;;;;;11.27;86.90;100436.91;1678484;83;25654;-77
2021/08/29 04:41:00;;;;;;;17.92;13.98;;;;;;;11.32;86.92;100441.19;1681038;82;26283;-77
2021/08/29 04:43:27;;;;;;;17.42;14.30;;;;;;;11.35;86.64;100441.31;1670572;82;25873;-76
2021/08/29 04:45:54;;;;;;;19.85;15.20;;;;;;;11.36;86.40;100432.22;1719502;81;25720;-78
2021/08/29 04:48:21;;;;;;;16.57;14.23;;;;;;;11.32;86.20;100427.77;1685722;82;27398;-78
2021/08/29 04:50:49;;;;;;;18.92;13.58;;;;;;;11.31;86.06;100424.77;1675609;83;25837;-78
2021/08/29 04:53:18;;;;;;;14.73;11.70;;;;;;;11.31;85.94;100425.30;1660581;82;26576;-78
2021/08/29 04:55:45;;;;;;;21.15;11.25;;;;;;;11.29;85.83;100421.45;1713956;82;26325;-77
2021/08/29 04:58:12;;;;;;;12.07;10.18;;;;;;;11.26;85.69;100424.54;1660136;82;25812;-77
2021/08/29 05:00:40;;;;;;;12.05;9.63;;;;;;;11.27;85.74;100421.35;1717088;82;27562;-77
2021/08/29 05:03:07;;;;;;;10.78;9.13;;;;;;;11.27;85.76;100420.81;1684529;82;25810;-77
2021/08/29 05:05:34;;;;;;;12.10;9.95;;;;;;;11.28;85.87;100418.97;1715136;81;26455;-76
2021/08/29 05:08:01;;;;;;;13.88;11.57;;;;;;;11.29;85.94;100409.38;1718359;82;26276;-77
2021/08/29 05:10:28;;;;;;;16.20;11.88;;;;;;;11.32;86.14;100410.85;1659935;82;25828;-78
2021/08/29 05:13:09;;;;;;;;;;;;;;;11.39;86.68;100415.25;1658236;83;28427;-77
2021/08/29 05:15:37;;;;;;;18.27;12.23;;;;;;;11.46;87.31;100424.14;1703212;83;25875;-78
2021/08/29 05:18:04;;;;;;;16.87;14.13;;;;;;;11.53;87.45;100425.53;1660668;83;25344;-77
2021/08/29 05:20:33;;;;;;;22.22;16.23;;;;;;;11.63;87.77;100432.73;1639785;83;25778;-77
2021/08/29 05:23:19;;;;;;;21.68;17.35;;;;;;;11.74;88.35;100440.77;1703462;83;26120;-78
2021/08/29 05:25:58;;;;;;;23.75;17.82;;;;;;;11.84;88.82;100438.55;1703249;83;27434;-77
2021/08/29 05:28:26;;;;;;;19.82;16.87;;;;;;;11.93;89.19;100436.02;1682285;83;26618;-77
2021/08/29 05:30:53;;;;;;;21.35;18.10;;;;;;;12.01;89.31;100440.70;1637486;83;25849;-77
2021/08/29 05:33:21;;;;;;;21.93;18.00;;;;;;;12.09;89.49;100443.72;1731187;82;25727;-77
2021/08/29 05:35:49;;;;;;;23.22;17.30;;;;;;;12.17;89.68;100437.66;1728375;82;25854;-78
2021/08/29 05:38:16;;;;;;;25.37;18.70;;;;;;;12.25;89.96;100435.33;1675927;83;28168;-77
2021/08/29 05:41:04;;;;;;;21.15;18.32;;;;;;;12.32;90.12;100434.30;1675103;82;25873;-77
2021/08/29 05:43:49;;;;;;;21.82;18.45;;;;;;;12.44;90.56;100434.56;1717917;82;25615;-77
2021/08/29 05:46:20;;;;;;;24.12;18.85;;;;;;;12.54;90.78;100440.36;1710755;82;26495;-77
2021/08/29 05:48:50;;;;;;;23.77;19.05;;;;;;;12.64;91.02;100436.76;1667830;82;25835;-77
2021/08/29 05:51:17;;;;;;;23.95;19.95;;;;;;;12.73;91.14;100432.85;1659923;82;27370;-78
2021/08/29 05:53:44;;;;;;;26.37;20.62;;;;;;;12.83;91.10;100431.92;1693055;83;26007;-77
2021/08/29 05:56:12;;;;;;;27.05;20.75;;;;;;;12.94;91.42;100433.17;1716391;82;25843;-77
2021/08/29 05:58:40;;;;;;;22.15;18.60;;;;;;;13.04;91.50;100422.34;1666658;82;25807;-77
2021/08/29 06:01:14;;;;;;;25.77;20.80;;;;;;;13.15;91.57;100423.08;1669896;83;25853;-77
2021/08/29 06:03:43;;;;;;;28.02;20.68;;;;;;;13.29;91.59;100421.73;1720206;82;27521;-77
2021/08/29 06:06:12;;;;;;;27.02;20.77;;;;;;;13.41;91.52;100412.80;1718542;82;26004;-78
2021/08/29 06:08:43;;;;;;;23.50;19.77;;;;;;;13.52;91.64;100414.86;1670574;82;25825;-77
2021/08/29 06:11:10;;;;;;;28.92;20.32;;;;;;;13.63;91.66;100414.22;1663045;82;25736;-77
2021/08/29 06:13:37;;;;;;;24.35;18.62;;;;;;;13.76;91.38;100412.02;1721180;82;25871;-78
2021/08/29 06:16:05;;;;;;;23.18;19.40;;;;;;;13.85;91.14;100421.00;1717534;82;28281;-77
2021/08/29 06:18:32;;;;;;;23.85;19.98;;;;;;;13.94;91.09;100415.66;1682768;82;26489;-78
2021/08/29 06:20:59;;;;;;;26.20;20.25;;;;;;;14.03;91.02;100408.72;1641834;82;26499;-78
2021/08/29 06:23:26;;;;;;;25.02;19.77;;;;;;;14.11;90.82;100406.61;1732620;82;25773;-77
2021/08/29 06:25:56;;;;;;;21.77;19.15;;;;;;;14.19;90.70;100406.87;1696886;82;26358;-78
2021/08/29 06:28:41;;;;;;;22.80;19.62;;;;;;;14.27;90.75;100409.31;1679467;82;27584;-78
2021/08/29 06:31:27;;;;;;;22.55;18.95;;;;;;;14.35;90.80;100407.77;1690144;82;25811;-78
2021/08/29 06:33:56;;;;;;;21.65;18.57;;;;;;;14.41;90.62;100405.00;1714335;81;25866;-77
2021/08/29 06:36:24;;;;;;;25.20;18.75;;;;;;;14.46;90.42;100401.67;1693556;82;26583;-77
2021/08/29 06:38:51;;;;;;;26.20;19.20;;;;;;;14.54;90.50;100394.70;1708781;82;25866;-78
2021/08/29 06:41:18;;;;;;;22.00;18.70;;;;;;;14.61;90.60;100387.37;1656430;83;27659;-78
2021/08/29 06:43:46;;;;;;;22.05;19.48;;;;;;;14.70;90.88;100383.37;1707460;83;26716;-77
2021/08/29 06:46:18;;;;;;;23.22;18.80;;;;;;;14.80;90.92;100381.55;1714642;82;25874;-78
2021/08/29 06:49:03;;;;;;;24.30;18.50;;;;;;;14.88;90.74;100388.02;1652322;83;26252;-77
2021/08/29 06:51:32;;;;;;;21.17;18.17;;;;;;;14.94;90.79;100389.31;1666240;82;26341;-78
2021/08/29 06:54:18;;;;;;;20.43;18.23;;;;;;;15.05;91.19;100384.55;1692932;83;28030;-79
2021/08/29 06:57:04;;;;;;;21.80;19.05;;;;;;;15.17;91.44;100387.34;1669173;82;25862;-78
2021/08/29 06:59:32;;;;;;;21.60;17.23;;;;;;;15.28;91.37;100386.10;1676758;83;26553;-77
2021/08/29 07:01:59;;;;;;;22.65;19.42;;;;;;;15.39;90.66;100385.38;1694048;82;26375;-78
2021/08/29 07:04:26;;;;;;;20.70;18.45;;;;;;;15.49;90.79;100388.09;1690390;82;25918;-78
2021/08/29 07:06:54;;;;;;;22.87;19.42;;;;;;;15.55;90.68;100389.89;1669894;82;27733;-78
2021/08/29 07:09:41;;;;;;;22.55;18.52;;;;;;;15.60;90.78;100382.78;1678878;82;25771;-78
2021/08/29 07:12:10;;;;;;;20.48;18.07;;;;;;;15.64;90.46;100386.69;1715517;82;26274;-78
2021/08/29 07:14:39;;;;;;;22.20;19.75;;;;;;;15.67;90.24;100392.16;1684093;82;25849;-78
2021/08/29 07:17:07;;;;;;;22.80;18.92;;;;;;;15.70;90.01;100402.50;1677121;81;25905;-78
2021/08/29 07:19:34;;;;;;;22.20;17.35;;;;;;;15.73;90.00;100393.96;1690205;82;27483;-77
2021/08/29 07:22:20;;;;;;;19.25;17.23;;;;;;;15.78;89.99;100400.33;1715613;82;25876;-78
2021/08/29 07:25:07;;;;;;;18.82;16.45;;;;;;;15.82;89.44;100410.17;1693451;82;25850;-78
2021/08/29 07:27:47;;;;;;;18.48;16.45;;;;;;;15.86;89.72;100416.77;1614138;82;26852;-77
2021/08/29 07:30:33;;;;;;;19.32;17.12;;;;;;;15.92;89.73;100409.11;1697347;82;26553;-77
2021/08/29 07:33:05;;;;;;;19.75;16.15;;;;;;;15.98;89.53;100409.03;1719048;82;27607;-78
2021/08/29 07:35:34;;;;;;;19.45;17.35;;;;;;;16.04;89.37;100413.53;1687746;82;25879;-78
2021/08/29 07:38:12;;;;;;;18.07;15.85;;;;;;;16.11;89.40;100416.15;1682651;82;25819;-78
2021/08/29 07:40:41;;;;;;;17.55;15.75;;;;;;;16.16;89.12;100413.59;1674823;83;26393;-78
2021/08/29 07:43:08;;;;;;;19.25;15.85;;;;;;;16.21;88.81;100411.86;1714169;82;26231;-78
2021/08/29 07:45:35;;;;;;;17.77;15.88;;;;;;;16.28;88.60;100415.82;1689952;83;28149;-78
2021/08/29 07:48:03;;;;;;;17.90;15.35;;;;;;;16.36;88.58;100414.15;1674947;82;25870;-79
2021/08/29 07:50:30;;;;;;;18.87;16.85;;;;;;;16.43;88.30;100421.66;1665753;82;26568;-79
2021/08/29 07:52:57;;;;;;;19.02;16.32;;;;;;;16.52;88.62;100426.24;1686185;82;26045;-78
2021/08/29 07:55:38;;;;;;;21.02;16.50;;;;;;;16.58;88.73;100422.09;1663829;82;26060;-79
2021/08/29 07:58:07;;;;;;;18.85;15.63;;;;;;;16.70;88.67;100419.44;1664629;82;27249;-79
2021/08/29 08:00:34;;;;;;;18.67;16.55;;;;;;;16.79;88.07;100420.73;1682762;82;25748;-78
2021/08/29 08:03:20;;;;;;;17.50;15.63;;;;;;;16.86;87.83;100420.11;1711896;82;26486;-78
2021/08/29 08:06:06;;;;;;;16.90;14.65;;;;;;;16.95;88.05;100422.27;1705773;81;26602;-79
2021/08/29 08:08:38;;;;;;;15.63;13.98;;;;;;;17.03;87.25;100412.14;1662220;82;25804;-79
2021/08/29 08:11:24;;;;;;;18.27;15.03;;;;;;;17.07;86.65;100414.16;1677704;83;28192;-79
2021/08/29 08:13:51;;;;;;;18.02;14.98;;;;;;;17.15;86.94;100405.68;1671468;82;26583;-79
2021/08/29 08:16:18;;;;;;;19.67;14.15;;;;;;;17.25;86.39;100402.41;1697663;82;26238;-79
2021/08/29 08:18:45;;;;;;;16.17;13.58;;;;;;;17.35;86.19;100409.41;1660665;82;25749;-79
2021/08/29 08:21:12;;;;;;;15.53;13.08;;;;;;;17.39;85.63;100407.88;1665197;82;25543;-79
2021/08/29 08:23:42;;;;;;;15.75;13.30;;;;;;;17.44;85.53;100418.83;1713718;82;27322;-79
2021/08/29 08:26:20;;;;;;;14.25;11.97;;;;;;;17.49;85.44;100408.92;1643703;86;25908;-79
2021/08/29 08:29:05;;;;;;;15.63;13.08;;;;;;;17.56;84.64;100403.42;1671559;82;25737;-79
2021/08/29 08:31:37;;;;;;;14.75;13.30;;;;;;;17.65;84.77;100398.78;1657206;82;26302;-78
2021/08/29 08:34:22;;;;;;;16.15;13.95;;;;;;;17.73;84.59;100397.57;1712144;82;26597;-79
2021/08/29 08:37:04;;;;;;;37.13;13.80;;;;;;;17.80;84.73;100394.21;1683144;82;28429;-79
2021/08/29 08:39:50;;;;;;;14.83;13.25;;;;;;;17.87;83.88;100403.05;1687633;82;25837;-79
2021/08/29 08:42:18;;;;;;;15.75;13.03;;;;;;;17.92;83.75;100396.35;1688313;82;25801;-79
2021/08/29 08:45:07;;;;;;;16.17;12.43;;;;;;;18.01;83.85;100402.22;1696002;83;26096;-78
2021/08/29 08:47:52;;;;;;;14.63;13.00;;;;;;;18.02;82.53;100397.94;1709498;82;26196;-78
2021/08/29 08:50:42;;;;;;;13.98;12.10;;;;;;;18.05;82.70;100399.35;1671754;82;27092;-79
2021/08/29 08:53:29;;;;;;;14.50;12.05;;;;;;;18.09;82.77;100401.31;1694161;82;25948;-79
2021/08/29 08:56:18;;;;;;;14.43;12.53;;;;;;;18.20;83.01;100404.53;1715182;82;25810;-79
2021/08/29 08:58:59;;;;;;;16.40;12.00;;;;;;;18.26;82.91;100398.13;1694706;82;25892;-79
2021/08/29 09:01:44;;;;;;;11.85;10.65;;;;;;;18.30;82.00;100404.75;1676961;82;25780;-79
2021/08/29 09:04:22;;;;;;;13.83;10.63;;;;;;;18.34;81.78;100401.84;1664699;84;28036;-79
2021/08/29 09:06:49;;;;;;;13.13;9.83;;;;;;;18.39;80.70;100405.98;1684656;82;26485;-79
2021/08/29 09:09:18;;;;;;;12.50;9.60;;;;;;;18.42;80.67;100412.30;1710740;82;25871;-79
2021/08/29 09:11:47;;;;;;;10.98;9.78;;;;;;;18.44;79.82;100415.63;1664489;82;26259;-78
2021/08/29 09:14:14;;;;;;;13.05;9.63;;;;;;;18.48;79.83;100410.00;1676704;82;25845;-78
2021/08/29 09:16:47;;;;;;;12.05;10.28;;;;;;;18.55;79.79;100403.59;1727052;81;27622;-79
2021/08/29 09:19:14;;;;;;;12.30;8.98;;;;;;;18.56;79.02;100399.30;1690505;82;25836;-78
2021/08/29 09:21:43;;;;;;;10.08;9.05;;;;;;;18.62;79.74;100404.27;1670285;82;26562;-79
2021/08/29 09:24:15;;;;;;;14.13;10.38;;;;;;;18.73;80.12;100402.87;1688266;82;25897;-79
2021/08/29 09:27:03;;;;;;;10.08;8.88;;;;;;;18.85;79.49;100406.33;1706388;81;26007;-79
2021/08/29 09:29:44;;;;;;;9.70;8.65;;;;;;;18.93;79.44;100401.84;1715767;82;27174;-79
2021/08/29 09:32:12;;;;;;;9.50;8.18;;;;;;;19.02;78.33;100403.09;1667315;82;25935;-78
2021/08/29 09:34:57;;;;;;;10.23;7.90;;;;;;;19.09;77.41;100412.43;1687860;82;25929;-78
2021/08/29 09:37:27;;;;;;;11.50;8.85;;;;;;;19.15;76.44;100408.72;1708789;82;25355;-78
2021/08/29 09:40:19;;;;;;;8.55;7.53;;;;;;;19.19;76.61;100407.16;1743399;81;26289;-79
2021/08/29 09:43:08;;;;;;;8.63;7.45;;;;;;;19.26;75.88;100406.46;1690032;84;27650;-78
2021/08/29 09:45:41;;;;;;;9.43;7.12;;;;;;;19.30;75.68;100402.70;1659040;83;25892;-78
2021/08/29 09:48:27;;;;;;;7.78;6.62;;;;;;;19.36;76.00;100394.95;1729192;81;26143;-79
2021/08/29 09:51:05;;;;;;;9.48;7.20;;;;;;;19.41;75.59;100386.36;1704119;83;25929;-79
2021/08/29 09:53:43;;;;;;;8.95;7.10;;;;;;;19.43;75.26;100381.49;1640864;84;26579;-80
2021/08/29 09:56:21;;;;;;;9.43;7.12;;;;;;;19.48;74.76;100385.63;1667807;83;27656;-79
2021/08/29 09:59:06;;;;;;;9.38;7.50;;;;;;;19.50;74.45;100385.39;1722376;82;25906;-79
2021/08/29 10:01:55;;;;;;;9.98;8.08;;;;;;;19.54;74.62;100379.21;1683617;82;25942;-79
2021/08/29 10:04:24;;;;;;;11.20;8.43;;;;;;;19.65;75.64;100387.77;1666259;82;26284;-79
2021/08/29 10:06:52;;;;;;;11.20;8.35;;;;;;;19.74;75.83;100374.56;1689084;82;25925;-79
2021/08/29 10:09:26;;;;;;;11.68;8.15;;;;;;;19.75;75.07;100377.05;1721262;82;28271;-78
2021/08/29 10:12:03;;;;;;;8.60;7.72;;;;;;;19.80;75.13;100381.73;1696003;82;25846;-79
2021/08/29 10:14:33;;;;;;;9.58;7.80;;;;;;;19.82;74.93;100384.46;1687949;82;25972;-79
2021/08/29 10:17:10;;;;;;;6.72;6.12;;;;;;;19.84;74.62;100383.70;1663876;82;25795;-79
2021/08/29 10:19:55;;;;;;;5.83;5.05;;;;;;;19.86;74.32;100387.52;1712305;82;25836;-79
2021/08/29 10:22:43;;;;;;;7.95;4.65;;;;;;;19.85;73.59;100383.97;1688395;82;27501;-79
2021/08/29 10:25:10;;;;;;;6.15;5.55;;;;;;;19.85;73.31;100383.97;1663924;83;26030;-79
2021/08/29 10:27:41;;;;;;;6.37;5.50;;;;;;;19.85;72.34;100389.41;1679461;82;25788;-79
2021/08/29 10:30:12;;;;;;;6.28;5.55;;;;;;;19.81;72.22;100391.52;1674731;83;25973;-79
2021/08/29 10:33:02;;;;;;;6.47;5.00;;;;;;;19.76;72.42;100387.39;1708004;82;26050;-79
2021/08/29 10:35:51;;;;;;;8.20;5.42;;;;;;;19.73;72.28;100387.88;1717351;82;27353;-79
2021/08/29 10:38:40;;;;;;;5.25;4.70;;;;;;;19.71;71.91;100388.67;1615221;87;25841;-79
2021/08/29 10:41:26;;;;;;;6.58;4.45;;;;;;;19.70;72.92;100389.20;1610435;88;26045;-79
2021/08/29 10:43:55;;;;;;;8.45;6.85;;;;;;;19.70;72.14;100390.56;1636476;82;25849;-79
2021/08/29 10:46:44;;;;;;;5.62;5.10;;;;;;;19.72;71.62;100393.84;1653729;82;25711;-79
2021/08/29 10:49:31;;;;;;;7.20;4.85;;;;;;;19.71;71.05;100394.11;1718228;82;27532;-79
2021/08/29 10:51:59;;;;;;;5.30;4.80;;;;;;;19.71;71.98;100394.11;1720622;82;25971;-79
2021/08/29 10:54:26;;;;;;;8.50;5.97;;;;;;;19.71;71.99;100389.50;1692580;82;26561;-79
2021/08/29 10:56:53;;;;;;;6.08;5.47;;;;;;;19.70;71.54;100389.73;1691857;82;26057;-79
2021/08/29 10:59:25;;;;;;;6.40;5.80;;;;;;;19.69;71.59;100389.46;1715312;82;25337;-79
2021/08/29 11:02:11;;;;;;;7.35;5.53;;;;;;;19.67;71.40;100391.08;1721938;82;27608;-80
2021/08/29 11:04:58;;;;;;;5.67;4.90;;;;;;;19.68;71.11;100382.37;1667327;82;26544;-79
2021/08/29 11:07:43;;;;;;;5.20;4.50;;;;;;;19.66;71.42;100381.80;1674448;82;25873;-79
2021/08/29 11:10:15;;;;;;;7.40;5.30;;;;;;;19.66;71.30;100388.59;1693208;82;25833;-79
2021/08/29 11:12:42;;;;;;;5.65;5.05;;;;;;;19.64;71.06;100379.87;1707789;82;25871;-79
2021/08/29 11:15:15;;;;;;;6.28;4.95;;;;;;;19.59;71.69;100383.34;1672254;82;28306;-79
2021/08/29 11:17:49;;;;;;;6.62;4.97;;;;;;;19.61;72.50;100383.91;1698860;82;26073;-79
2021/08/29 11:20:18;;;;;;;5.75;5.05;;;;;;;19.62;72.69;100388.81;1711943;82;25893;-80
2021/08/29 11:22:56;;;;;;;5.10;4.60;;;;;;;19.62;72.50;100392.36;1656006;85;26690;-79
2021/08/29 11:25:27;;;;;;;5.27;4.70;;;;;;;19.60;71.71;100394.51;1672319;82;25910;-79
2021/08/29 11:28:00;;;;;;;9.23;4.37;;;;;;;19.61;72.18;100390.70;1682933;82;27621;-79
2021/08/29 11:30:46;;;;;;;6.30;5.00;;;;;;;19.64;72.67;100387.50;1708924;83;25768;-80
2021/08/29 11:33:25;;;;;;;5.70;4.75;;;;;;;19.65;71.98;100389.69;1715868;81;25767;-79
2021/08/29 11:35:53;;;;;;;5.65;5.15;;;;;;;19.65;71.41;100385.61;1702376;82;25887;-79